Aviation Digital Data Service (ADDS)

Output produced by METARs form (0242 UTC 24 July 2017)
found at http://www.aviationweather.gov/adds/metars/
 
OAHR 240155Z 00000KT CAVOK 25/08 Q1007 RMK BLU
TAF AMD OAHR 240130Z 2402/2424 03010KT CAVOK 
     BECMG 2403/2405 02020G30KT 
     BECMG 2415/2417 02015KT
       
OAJL 240155Z 18002KT 8000 HZ CLR 30/21 A2957 RMK AO2A SLP966 T02970210
TAF OAJL 240000Z 2400/2506 VRB06KT 8000 HZ FEW150 QNH2948INS 
     BECMG 2401/2402 VRB06KT 8000 HZ FEW040 QNH2951INS 
     BECMG 2406/2407 09009KT 8000 HZ FEW080 QNH2944INS 
     BECMG 2411/2412 09012G18KT 9999 NSW FEW080 FEW200 QNH2947INS 
     BECMG 2415/2416 VRB06KT 8000 HZ FEW100 QNH2950INS TX37/2410Z TN29/2400Z
       
OAKB 240150Z 00000KT CAVOK 22/08 Q1012 NOSIG RMK BLU BLU
TAF OAKB 232305Z 2400/2424 VRB02KT CAVOK 
     TEMPO 2401/2404 5000 HZ 
     BECMG 2406/2408 35012KT 
     TEMPO 2410/2412 03012G22KT 
     BECMG 2416/2418 VRB02KT
       
OAKN 240155Z 15005KT 9999 CLR 28/M04 A2959 RMK AO2A SLP949 Q1002 DA5970
TAF OAKN 232300Z 2323/2505 24009KT 9999 SKC QNH2952INS 
     BECMG 2408/2409 24010G15KT 9999 SKC QNH2950INS TX42/2411Z TN23/2423Z
       
OAMS 240150Z 02003KT 9000 SKC 27/03 Q1002 BLU+BLU+
TAF OAMS 232305Z 2400/2424 21010KT 9999 NSW SKC 
     BECMG 2403/2405 28013KT 9999 NSW SKC 
     BECMG 2414/2416 21010KT 9999 NSW SKC